Time,TemperatureF,DewpointF,PressureIn,WindDirection,WindDirectionDegrees,WindSpeedMPH,WindSpeedGustMPH,Humidity,HourlyPrecipIn,Conditions,Clouds,dailyrainin,SoftwareType,DateUTC
2013-07-24 00:04:00,67.3,64.9,29.79,North,349,0.0,0.0,92,0.00,,,0.00,Wunderground v.1.15,2013-07-24 04:04:00,
2013-07-24 00:09:00,67.2,65.1,29.79,North,349,0.0,0.0,93,0.00,,,0.00,Wunderground v.1.15,2013-07-24 04:09:00,
2013-07-24 00:14:00,67.2,65.1,29.80,North,349,0.0,0.0,93,0.00,,,0.00,Wunderground v.1.15,2013-07-24 04:14:00,
2013-07-24 00:19:00,67.3,65.5,29.80,North,349,0.0,0.0,94,0.00,,,0.00,Wunderground v.1.15,2013-07-24 04:19:00,
2013-07-24 00:29:00,67.4,65.9,29.81,North,349,0.0,0.0,95,0.00,,,0.00,Wunderground v.1.15,2013-07-24 04:29:00,
2013-07-24 00:39:00,67.3,65.8,29.81,North,349,0.0,0.0,95,0.00,,,0.00,Wunderground v.1.15,2013-07-24 04:39:00,
2013-07-24 00:44:00,67.2,66.0,29.81,North,349,0.0,0.0,96,0.00,,,0.00,Wunderground v.1.15,2013-07-24 04:44:00,
2013-07-24 00:54:00,66.8,65.3,29.80,North,349,0.0,0.0,95,0.00,,,0.00,Wunderground v.1.15,2013-07-24 04:54:00,
2013-07-24 00:59:00,66.6,65.4,29.80,North,349,0.0,0.0,96,0.00,,,0.00,Wunderground v.1.15,2013-07-24 04:59:00,
2013-07-24 01:04:00,66.5,65.3,29.80,North,349,0.0,0.0,96,0.00,,,0.00,Wunderground v.1.15,2013-07-24 05:04:00,
2013-07-24 01:14:00,66.3,65.1,29.80,North,349,0.0,0.0,96,0.00,,,0.00,Wunderground v.1.15,2013-07-24 05:14:00,
2013-07-24 01:19:00,66.4,65.5,29.80,North,349,0.0,0.0,97,0.00,,,0.00,Wunderground v.1.15,2013-07-24 05:19:00,
2013-07-24 01:24:00,66.4,65.5,29.79,North,349,0.0,0.0,97,0.00,,,0.00,Wunderground v.1.15,2013-07-24 05:24:00,
2013-07-24 01:34:00,66.2,65.3,29.79,North,349,0.0,0.0,97,0.00,,,0.00,Wunderground v.1.15,2013-07-24 05:34:00,
2013-07-24 01:44:00,66.1,65.2,29.78,North,349,0.0,0.0,97,0.00,,,0.00,Wunderground v.1.15,2013-07-24 05:44:00,
2013-07-24 01:49:00,66.1,65.2,29.78,North,11,0.0,0.0,97,0.00,,,0.00,Wunderground v.1.15,2013-07-24 05:49:00,
2013-07-24 02:04:00,66.5,65.6,29.77,North,5,0.0,0.0,97,0.00,,,0.00,Wunderground v.1.15,2013-07-24 06:04:00,
2013-07-24 02:14:00,66.7,65.8,29.76,NNE,26,0.0,0.0,97,0.00,,,0.00,Wunderground v.1.15,2013-07-24 06:14:00,
2013-07-24 02:24:00,66.9,65.7,29.76,NNE,14,0.0,0.0,96,0.00,,,0.00,Wunderground v.1.15,2013-07-24 06:24:00,
2013-07-24 02:34:00,67.2,66.3,29.77,North,10,0.0,0.0,97,0.00,,,0.00,Wunderground v.1.15,2013-07-24 06:34:00,
2013-07-24 02:39:00,67.4,66.5,29.77,North,11,0.0,0.0,97,0.00,,,0.00,Wunderground v.1.15,2013-07-24 06:39:00,
2013-07-24 02:49:00,67.5,66.3,29.77,North,11,0.0,0.0,96,0.00,,,0.00,Wunderground v.1.15,2013-07-24 06:49:00,
2013-07-24 02:59:00,67.4,66.2,29.76,NNW,345,1.0,1.0,96,0.00,,,0.00,Wunderground v.1.15,2013-07-24 06:59:00,
2013-07-24 03:04:00,67.2,66.0,29.76,NNW,345,1.0,1.0,96,0.00,,,0.00,Wunderground v.1.15,2013-07-24 07:04:00,
2013-07-24 03:14:00,66.9,65.7,29.76,NNW,345,0.0,0.0,96,0.00,,,0.00,Wunderground v.1.15,2013-07-24 07:14:00,
2013-07-24 03:19:00,67.0,66.1,29.76,NNW,345,0.0,1.0,97,0.00,,,0.00,Wunderground v.1.15,2013-07-24 07:19:00,
2013-07-24 03:24:00,67.2,66.3,29.76,NNW,345,0.0,1.0,97,0.00,,,0.00,Wunderground v.1.15,2013-07-24 07:24:00,
2013-07-24 03:34:00,67.2,66.3,29.75,North,350,1.0,1.0,97,0.00,,,0.00,Wunderground v.1.15,2013-07-24 07:34:00,
2013-07-24 03:44:00,66.9,66.0,29.75,North,350,1.0,1.0,97,0.00,,,0.00,Wunderground v.1.15,2013-07-24 07:44:00,
2013-07-24 03:49:00,67.0,66.4,29.75,North,350,0.0,0.0,98,0.00,,,0.00,Wunderground v.1.15,2013-07-24 07:49:00,
2013-07-24 03:54:00,67.1,66.5,29.75,North,350,0.0,0.0,98,0.00,,,0.00,Wunderground v.1.15,2013-07-24 07:54:00,
2013-07-24 03:59:00,67.1,66.5,29.75,North,350,0.0,0.0,98,0.00,,,0.00,Wunderground v.1.15,2013-07-24 07:59:00,
2013-07-24 04:04:00,67.0,66.4,29.75,North,350,0.0,0.0,98,0.00,,,0.00,Wunderground v.1.15,2013-07-24 08:04:00,
2013-07-24 04:14:00,67.1,66.5,29.75,NW,324,0.0,0.0,98,0.00,,,0.00,Wunderground v.1.15,2013-07-24 08:14:00,
2013-07-24 04:19:00,67.2,66.6,29.75,NW,326,0.0,0.0,98,0.00,,,0.00,Wunderground v.1.15,2013-07-24 08:19:00,
2013-07-24 04:24:00,67.2,66.6,29.75,NW,326,0.0,0.0,98,0.00,,,0.00,Wunderground v.1.15,2013-07-24 08:24:00,
2013-07-24 04:34:00,67.3,66.7,29.75,North,355,1.0,1.0,98,0.00,,,0.00,Wunderground v.1.15,2013-07-24 08:34:00,
2013-07-24 04:39:00,67.5,66.9,29.75,NNW,344,1.0,2.0,98,0.00,,,0.00,Wunderground v.1.15,2013-07-24 08:39:00,
2013-07-24 04:44:00,67.6,67.0,29.74,NNW,344,1.0,2.0,98,0.00,,,0.00,Wunderground v.1.15,2013-07-24 08:44:00,
2013-07-24 04:54:00,67.6,67.0,29.74,North,350,0.0,0.0,98,0.00,,,0.00,Wunderground v.1.15,2013-07-24 08:54:00,
2013-07-24 05:04:00,67.6,67.0,29.74,North,349,0.0,0.0,98,0.00,,,0.00,Wunderground v.1.15,2013-07-24 09:04:00,
2013-07-24 05:14:00,67.5,66.9,29.74,North,350,0.0,0.0,98,0.00,,,0.00,Wunderground v.1.15,2013-07-24 09:14:00,
2013-07-24 05:19:00,67.5,66.9,29.74,North,350,0.0,0.0,98,0.00,,,0.00,Wunderground v.1.15,2013-07-24 09:19:00,
2013-07-24 05:29:00,67.6,67.0,29.74,North,350,0.0,0.0,98,0.00,,,0.00,Wunderground v.1.15,2013-07-24 09:29:00,
2013-07-24 05:39:00,67.7,67.1,29.74,North,360,0.0,0.0,98,0.00,,,0.00,Wunderground v.1.15,2013-07-24 09:39:00,
2013-07-24 05:44:00,67.7,67.1,29.75,North,355,0.0,0.0,98,0.00,,,0.00,Wunderground v.1.15,2013-07-24 09:44:00,
2013-07-24 05:54:00,67.7,67.1,29.75,North,355,1.0,1.0,98,0.00,,,0.00,Wunderground v.1.15,2013-07-24 09:54:00,
2013-07-24 06:04:00,67.0,66.1,29.76,North,355,1.0,2.0,97,0.00,,,0.00,Wunderground v.1.15,2013-07-24 10:04:00,
2013-07-24 06:14:00,66.1,65.2,29.76,North,355,0.0,1.0,97,0.00,,,0.00,Wunderground v.1.15,2013-07-24 10:14:00,
2013-07-24 06:19:00,66.0,65.4,29.76,North,355,0.0,0.0,98,0.00,,,0.00,Wunderground v.1.15,2013-07-24 10:19:00,
2013-07-24 06:29:00,66.3,66.0,29.76,North,355,0.0,0.0,99,0.00,,,0.00,Wunderground v.1.15,2013-07-24 10:29:00,
2013-07-24 06:34:00,66.6,66.3,29.76,North,355,1.0,1.0,99,0.00,,,0.00,Wunderground v.1.15,2013-07-24 10:34:00,
2013-07-24 06:44:00,66.2,65.6,29.76,NNW,342,1.0,1.0,98,0.00,,,0.00,Wunderground v.1.15,2013-07-24 10:44:00,
2013-07-24 06:49:00,65.9,65.3,29.76,NNW,342,1.0,4.0,98,0.00,,,0.00,Wunderground v.1.15,2013-07-24 10:49:00,
2013-07-24 06:59:00,65.9,65.6,29.76,North,360,1.0,1.0,99,0.00,,,0.00,Wunderground v.1.15,2013-07-24 10:59:00,
2013-07-24 07:04:00,66.3,66.0,29.77,North,350,1.0,4.0,99,0.00,,,0.00,Wunderground v.1.15,2013-07-24 11:04:00,
2013-07-24 07:14:00,67.2,66.9,29.78,North,355,1.0,3.0,99,0.00,,,0.00,Wunderground v.1.15,2013-07-24 11:14:00,
2013-07-24 07:19:00,67.5,67.5,29.78,NNW,345,1.0,3.0,100,0.00,,,0.00,Wunderground v.1.15,2013-07-24 11:19:00,
2013-07-24 07:24:00,67.6,67.6,29.78,NNW,345,1.0,3.0,100,0.00,,,0.00,Wunderground v.1.15,2013-07-24 11:24:00,
2013-07-24 07:29:00,67.7,67.4,29.78,North,360,1.0,1.0,99,0.00,,,0.00,Wunderground v.1.15,2013-07-24 11:29:00,
2013-07-24 07:39:00,67.7,67.4,29.78,North,355,2.0,2.0,99,0.00,,,0.00,Wunderground v.1.15,2013-07-24 11:39:00,
2013-07-24 07:49:00,67.5,67.2,29.78,North,355,3.0,4.0,99,0.00,,,0.00,Wunderground v.1.15,2013-07-24 11:49:00,
2013-07-24 07:54:00,67.5,67.2,29.78,North,350,3.0,8.0,99,0.00,,,0.00,Wunderground v.1.15,2013-07-24 11:54:00,
2013-07-24 08:04:00,67.7,67.4,29.79,North,351,5.0,6.0,99,0.00,,,0.00,Wunderground v.1.15,2013-07-24 12:04:00,
2013-07-24 08:14:00,67.7,67.4,29.78,North,360,3.0,4.0,99,0.00,,,0.00,Wunderground v.1.15,2013-07-24 12:14:00,
2013-07-24 08:19:00,67.7,67.4,29.78,North,360,2.0,2.0,99,0.00,,,0.00,Wunderground v.1.15,2013-07-24 12:19:00,
2013-07-24 08:24:00,67.7,67.4,29.78,NNW,340,2.0,2.0,99,0.00,,,0.00,Wunderground v.1.15,2013-07-24 12:24:00,
2013-07-24 08:34:00,67.9,67.6,29.79,NNW,346,2.0,7.0,99,0.00,,,0.00,Wunderground v.1.15,2013-07-24 12:34:00,
2013-07-24 08:39:00,67.9,67.6,29.79,North,355,2.0,2.0,99,0.00,,,0.00,Wunderground v.1.15,2013-07-24 12:39:00,
2013-07-24 08:49:00,68.1,67.8,29.80,North,355,2.0,2.0,99,0.00,,,0.00,Wunderground v.1.15,2013-07-24 12:49:00,
2013-07-24 08:54:00,68.1,67.8,29.79,North,355,1.0,2.0,99,0.00,,,0.00,Wunderground v.1.15,2013-07-24 12:54:00,
2013-07-24 08:59:00,68.1,67.8,29.79,North,355,0.0,0.0,99,0.00,,,0.00,Wunderground v.1.15,2013-07-24 12:59:00,
2013-07-24 09:04:00,68.1,67.8,29.79,North,355,0.0,0.0,99,0.00,,,0.00,Wunderground v.1.15,2013-07-24 13:04:00,
2013-07-24 09:14:00,68.2,67.9,29.80,North,355,0.0,0.0,99,0.00,,,0.00,Wunderground v.1.15,2013-07-24 13:14:00,
2013-07-24 09:24:00,68.3,68.0,29.80,North,355,1.0,1.0,99,0.00,,,0.00,Wunderground v.1.15,2013-07-24 13:24:00,
2013-07-24 09:34:00,68.6,68.3,29.81,North,355,1.0,3.0,99,0.00,,,0.00,Wunderground v.1.15,2013-07-24 13:34:00,
2013-07-24 09:39:00,68.9,68.6,29.80,NNW,345,2.0,2.0,99,0.00,,,0.00,Wunderground v.1.15,2013-07-24 13:39:00,
2013-07-24 09:49:00,69.1,68.5,29.79,North,351,2.0,2.0,98,0.00,,,0.00,Wunderground v.1.15,2013-07-24 13:49:00,
2013-07-24 09:54:00,69.2,68.3,29.79,North,355,3.0,5.0,97,0.00,,,0.00,Wunderground v.1.15,2013-07-24 13:54:00,
2013-07-24 10:04:00,68.6,65.5,29.79,NNW,345,4.0,5.0,90,0.00,,,0.00,Wunderground v.1.15,2013-07-24 14:04:00,
2013-07-24 10:14:00,68.8,65.7,29.80,North,360,3.0,5.0,90,0.00,,,0.00,Wunderground v.1.15,2013-07-24 14:14:00,
2013-07-24 10:19:00,69.1,66.0,29.80,NNW,348,3.0,5.0,90,0.00,,,0.00,Wunderground v.1.15,2013-07-24 14:19:00,
2013-07-24 10:29:00,69.5,66.8,29.79,NNW,348,1.0,1.0,91,0.00,,,0.00,Wunderground v.1.15,2013-07-24 14:29:00,
2013-07-24 10:39:00,69.8,66.7,29.79,NNW,348,0.0,0.0,90,0.00,,,0.00,Wunderground v.1.15,2013-07-24 14:39:00,
2013-07-24 10:44:00,69.9,67.5,29.79,NNW,348,0.0,0.0,92,0.00,,,0.00,Wunderground v.1.15,2013-07-24 14:44:00,
2013-07-24 10:49:00,69.9,67.8,29.80,NNW,348,0.0,0.0,93,0.00,,,0.00,Wunderground v.1.15,2013-07-24 14:49:00,
2013-07-24 10:59:00,69.9,67.8,29.80,NNW,348,1.0,1.0,93,0.00,,,0.00,Wunderground v.1.15,2013-07-24 14:59:00,
2013-07-24 11:04:00,69.8,67.7,29.80,NNW,348,1.0,1.0,93,0.00,,,0.00,Wunderground v.1.15,2013-07-24 15:04:00,
2013-07-24 11:14:00,70.2,68.1,29.80,NNW,348,0.0,0.0,93,0.00,,,0.00,Wunderground v.1.15,2013-07-24 15:14:00,
2013-07-24 11:24:00,71.1,69.3,29.80,NNW,348,0.0,4.0,94,0.00,,,0.00,Wunderground v.1.15,2013-07-24 15:24:00,
2013-07-24 11:29:00,71.6,67.2,29.80,NNW,348,0.0,0.0,86,0.00,,,0.00,Wunderground v.1.15,2013-07-24 15:29:00,
2013-07-24 11:39:00,73.7,69.9,29.79,NNW,342,1.0,1.0,88,0.00,,,0.00,Wunderground v.1.15,2013-07-24 15:39:00,
2013-07-24 11:44:00,74.5,71.7,29.79,North,355,1.0,1.0,91,0.00,,,0.00,Wunderground v.1.15,2013-07-24 15:44:00,
2013-07-24 11:54:00,76.8,72.3,29.79,NNW,348,2.0,5.0,86,0.00,,,0.00,Wunderground v.1.15,2013-07-24 15:54:00,
2013-07-24 12:04:00,77.1,71.9,29.79,North,355,3.0,5.0,84,0.00,,,0.00,Wunderground v.1.15,2013-07-24 16:04:00,
2013-07-24 12:14:00,76.7,71.8,29.79,North,355,2.0,5.0,85,0.00,,,0.00,Wunderground v.1.15,2013-07-24 16:14:00,
2013-07-24 12:19:00,77.0,72.8,29.79,North,5,2.0,2.0,87,0.00,,,0.00,Wunderground v.1.15,2013-07-24 16:19:00,
2013-07-24 12:24:00,76.9,71.3,29.79,North,5,1.0,2.0,83,0.00,,,0.00,Wunderground v.1.15,2013-07-24 16:24:00,
2013-07-24 12:29:00,77.3,72.1,29.79,NNW,346,1.0,4.0,84,0.00,,,0.00,Wunderground v.1.15,2013-07-24 16:29:00,
2013-07-24 12:39:00,78.2,74.0,29.79,NNW,346,1.0,6.0,87,0.00,,,0.00,Wunderground v.1.15,2013-07-24 16:39:00,
2013-07-24 12:49:00,77.8,72.2,29.79,NNW,346,3.0,4.0,83,0.00,,,0.00,Wunderground v.1.15,2013-07-24 16:49:00,
2013-07-24 12:54:00,77.5,72.6,29.79,NNW,344,2.0,4.0,85,0.00,,,0.00,Wunderground v.1.15,2013-07-24 16:54:00,
2013-07-24 13:04:00,76.9,73.1,29.79,North,349,1.0,2.0,88,0.00,,,0.00,Wunderground v.1.15,2013-07-24 17:04:00,
2013-07-24 13:14:00,78.3,74.8,29.78,North,349,0.0,0.0,89,0.00,,,0.00,Wunderground v.1.15,2013-07-24 17:14:00,
2013-07-24 13:19:00,79.0,73.0,29.78,North,349,0.0,0.0,82,0.00,,,0.00,Wunderground v.1.15,2013-07-24 17:19:00,
2013-07-24 13:29:00,80.1,74.1,29.79,NNW,339,1.0,1.0,82,0.00,,,0.00,Wunderground v.1.15,2013-07-24 17:29:00,
2013-07-24 13:34:00,80.7,75.8,29.79,NNW,340,0.0,1.0,85,0.00,,,0.00,Wunderground v.1.15,2013-07-24 17:34:00,
2013-07-24 13:44:00,79.4,74.1,29.79,NNW,340,1.0,3.0,84,0.00,,,0.00,Wunderground v.1.15,2013-07-24 17:44:00,
2013-07-24 13:49:00,79.1,73.8,29.78,NNW,342,1.0,1.0,84,0.00,,,0.00,Wunderground v.1.15,2013-07-24 17:49:00,
2013-07-24 13:54:00,79.3,73.7,29.78,NNW,342,1.0,1.0,83,0.00,,,0.00,Wunderground v.1.15,2013-07-24 17:54:00,
2013-07-24 14:04:00,78.7,73.1,29.78,NNW,342,0.0,1.0,83,0.00,,,0.00,Wunderground v.1.15,2013-07-24 18:04:00,
2013-07-24 14:14:00,79.1,74.5,29.77,NNW,342,0.0,0.0,86,0.00,,,0.00,Wunderground v.1.15,2013-07-24 18:14:00,
2013-07-24 14:19:00,79.6,76.1,29.77,NNW,342,0.0,0.0,89,0.00,,,0.00,Wunderground v.1.15,2013-07-24 18:19:00,
2013-07-24 14:24:00,80.0,74.4,29.78,North,350,1.0,3.0,83,0.00,,,0.00,Wunderground v.1.15,2013-07-24 18:24:00,
2013-07-24 14:34:00,80.2,74.6,29.77,NNW,333,1.0,2.0,83,0.00,,,0.00,Wunderground v.1.15,2013-07-24 18:34:00,
2013-07-24 14:44:00,80.4,76.2,29.77,North,355,0.0,1.0,87,0.00,,,0.00,Wunderground v.1.15,2013-07-24 18:44:00,
2013-07-24 14:49:00,80.9,75.6,29.77,NNW,347,1.0,1.0,84,0.00,,,0.00,Wunderground v.1.15,2013-07-24 18:49:00,
2013-07-24 14:59:00,81.0,75.7,29.77,NNW,344,1.0,1.0,84,0.00,,,0.00,Wunderground v.1.15,2013-07-24 18:59:00,
2013-07-24 15:04:00,81.4,72.3,29.77,NNW,348,1.0,1.0,74,0.00,,,0.00,Wunderground v.1.15,2013-07-24 19:04:00,
2013-07-24 15:14:00,81.2,73.3,29.77,NNW,344,2.0,2.0,77,0.00,,,0.00,Wunderground v.1.15,2013-07-24 19:14:00,
2013-07-24 15:19:00,81.2,72.1,29.77,NNW,339,1.0,1.0,74,0.00,,,0.00,Wunderground v.1.15,2013-07-24 19:19:00,
2013-07-24 15:29:00,81.3,71.4,29.77,NNW,347,2.0,2.0,72,0.00,,,0.00,Wunderground v.1.15,2013-07-24 19:29:00,
2013-07-24 15:39:00,81.6,74.5,29.77,NNW,348,2.0,2.0,79,0.00,,,0.00,Wunderground v.1.15,2013-07-24 19:39:00,
2013-07-24 15:44:00,81.6,72.5,29.77,North,355,2.0,2.0,74,0.00,,,0.00,Wunderground v.1.15,2013-07-24 19:44:00,
2013-07-24 15:54:00,81.4,70.7,29.76,North,350,3.0,5.0,70,0.00,,,0.00,Wunderground v.1.15,2013-07-24 19:54:00,
2013-07-24 16:04:00,81.1,70.8,29.76,North,5,3.0,4.0,71,0.00,,,0.00,Wunderground v.1.15,2013-07-24 20:04:00,
2013-07-24 16:14:00,80.5,69.0,29.76,North,351,2.0,2.0,68,0.00,,,0.00,Wunderground v.1.15,2013-07-24 20:14:00,
2013-07-24 16:19:00,80.2,69.5,29.76,North,349,3.0,3.0,70,0.00,,,0.00,Wunderground v.1.15,2013-07-24 20:19:00,
2013-07-24 16:29:00,79.4,70.0,29.76,North,350,2.0,2.0,73,0.00,,,0.00,Wunderground v.1.15,2013-07-24 20:29:00,
2013-07-24 16:39:00,78.8,69.4,29.75,North,355,1.0,1.0,73,0.00,,,0.00,Wunderground v.1.15,2013-07-24 20:39:00,
2013-07-24 16:44:00,79.0,71.2,29.75,North,350,1.0,1.0,77,0.00,,,0.00,Wunderground v.1.15,2013-07-24 20:44:00,
2013-07-24 16:54:00,79.6,70.2,29.75,North,350,2.0,6.0,73,0.00,,,0.00,Wunderground v.1.15,2013-07-24 20:54:00,
2013-07-24 16:59:00,80.3,72.0,29.75,NNW,344,3.0,4.0,76,0.00,,,0.00,Wunderground v.1.15,2013-07-24 20:59:00,
2013-07-24 17:04:00,80.9,70.6,29.75,NNW,348,3.0,6.0,71,0.00,,,0.00,Wunderground v.1.15,2013-07-24 21:04:00,
2013-07-24 17:13:00,81.6,69.6,29.75,North,349,4.0,4.0,67,0.00,,,0.00,Wunderground v.1.15,2013-07-24 21:13:00,
2013-07-24 17:19:00,81.7,69.7,29.75,North,351,3.0,3.0,67,0.00,,,0.00,Wunderground v.1.15,2013-07-24 21:19:00,
2013-07-24 17:24:00,81.9,70.7,29.75,North,350,3.0,3.0,69,0.00,,,0.00,Wunderground v.1.15,2013-07-24 21:24:00,
2013-07-24 17:34:00,82.8,72.8,29.75,NNW,339,3.0,3.0,72,0.00,,,0.00,Wunderground v.1.15,2013-07-24 21:34:00,
2013-07-24 17:39:00,83.4,73.4,29.75,NNW,341,1.0,4.0,72,0.00,,,0.00,Wunderground v.1.15,2013-07-24 21:39:00,
2013-07-24 17:49:00,83.7,73.3,29.75,NNW,343,1.0,1.0,71,0.00,,,0.00,Wunderground v.1.15,2013-07-24 21:49:00,
2013-07-24 17:54:00,83.6,71.9,29.75,NNW,342,1.0,1.0,68,0.00,,,0.00,Wunderground v.1.15,2013-07-24 21:54:00,
2013-07-24 18:04:00,81.8,69.3,29.75,North,350,1.0,5.0,66,0.00,,,0.00,Wunderground v.1.15,2013-07-24 22:04:00,
2013-07-24 18:14:00,79.6,69.0,29.75,NNW,334,1.0,1.0,70,0.00,,,0.00,Wunderground v.1.15,2013-07-24 22:14:00,
2013-07-24 18:24:00,77.6,68.3,29.75,NNW,338,0.0,0.0,73,0.00,,,0.00,Wunderground v.1.15,2013-07-24 22:24:00,
2013-07-24 18:33:00,76.1,68.0,29.75,NNW,346,0.0,0.0,76,0.00,,,0.00,Wunderground v.1.15,2013-07-24 22:33:00,
2013-07-24 18:39:00,75.5,68.2,29.75,NNW,346,0.0,0.0,78,0.00,,,0.00,Wunderground v.1.15,2013-07-24 22:39:00,
2013-07-24 18:49:00,74.6,68.0,29.76,NNW,346,0.0,0.0,80,0.00,,,0.00,Wunderground v.1.15,2013-07-24 22:49:00,
2013-07-24 18:54:00,74.3,68.1,29.76,NNW,346,0.0,0.0,81,0.00,,,0.00,Wunderground v.1.15,2013-07-24 22:54:00,
2013-07-24 18:59:00,74.0,67.8,29.76,NNW,346,0.0,0.0,81,0.00,,,0.00,Wunderground v.1.15,2013-07-24 22:59:00,
2013-07-24 19:04:00,73.8,68.0,29.76,North,355,0.0,0.0,82,0.00,,,0.00,Wunderground v.1.15,2013-07-24 23:04:00,
2013-07-24 19:14:00,73.5,66.9,29.76,North,360,0.0,0.0,80,0.00,,,0.00,Wunderground v.1.15,2013-07-24 23:14:00,
2013-07-24 19:24:00,73.1,66.9,29.77,North,355,1.0,1.0,81,0.00,,,0.00,Wunderground v.1.15,2013-07-24 23:24:00,
2013-07-24 19:34:00,72.6,67.1,29.78,NNW,342,2.0,2.0,83,0.00,,,0.00,Wunderground v.1.15,2013-07-24 23:34:00,
2013-07-24 19:39:00,72.4,67.6,29.78,NNW,347,1.0,1.0,85,0.00,,,0.00,Wunderground v.1.15,2013-07-24 23:39:00,
2013-07-24 19:49:00,71.9,67.1,29.78,NNW,347,0.0,0.0,85,0.00,,,0.00,Wunderground v.1.15,2013-07-24 23:49:00,
2013-07-24 19:54:00,71.7,67.3,29.79,NNW,347,0.0,0.0,86,0.00,,,0.00,Wunderground v.1.15,2013-07-24 23:54:00,
2013-07-24 20:04:00,71.5,67.4,29.79,NNW,347,1.0,3.0,87,0.00,,,0.00,Wunderground v.1.15,2013-07-25 00:04:00,
2013-07-24 20:14:00,71.5,67.8,29.80,North,10,1.0,1.0,88,0.00,,,0.00,Wunderground v.1.15,2013-07-25 00:14:00,
2013-07-24 20:19:00,71.6,67.9,29.80,North,355,1.0,1.0,88,0.00,,,0.00,Wunderground v.1.15,2013-07-25 00:19:00,
2013-07-24 20:29:00,71.5,67.8,29.79,NNW,348,0.0,0.0,88,0.00,,,0.00,Wunderground v.1.15,2013-07-25 00:29:00,
2013-07-24 20:39:00,71.1,67.7,29.80,NNW,348,0.0,0.0,89,0.00,,,0.00,Wunderground v.1.15,2013-07-25 00:39:00,
2013-07-24 20:44:00,70.9,67.5,29.79,NNE,12,0.0,0.0,89,0.00,,,0.00,Wunderground v.1.15,2013-07-25 00:44:00,
2013-07-24 20:53:00,70.5,67.4,29.80,North,355,0.0,0.0,90,0.00,,,0.00,Wunderground v.1.15,2013-07-25 00:53:00,
2013-07-24 20:59:00,70.3,67.2,29.79,North,355,0.0,2.0,90,0.00,,,0.00,Wunderground v.1.15,2013-07-25 00:59:00,
2013-07-24 21:04:00,70.2,67.1,29.80,North,355,0.0,2.0,90,0.00,,,0.00,Wunderground v.1.15,2013-07-25 01:04:00,
2013-07-24 21:14:00,70.0,66.9,29.80,North,355,0.0,0.0,90,0.00,,,0.00,Wunderground v.1.15,2013-07-25 01:14:00,
2013-07-24 21:23:00,69.7,67.0,29.80,North,355,0.0,0.0,91,0.00,,,0.00,Wunderground v.1.15,2013-07-25 01:23:00,
2013-07-24 21:29:00,69.5,66.8,29.80,North,355,0.0,0.0,91,0.00,,,0.00,Wunderground v.1.15,2013-07-25 01:29:00,
2013-07-24 21:34:00,69.4,66.7,29.80,North,355,0.0,0.0,91,0.00,,,0.00,Wunderground v.1.15,2013-07-25 01:34:00,
2013-07-24 21:43:00,69.0,66.3,29.80,North,355,0.0,0.0,91,0.00,,,0.00,Wunderground v.1.15,2013-07-25 01:43:00,
2013-07-24 21:49:00,68.8,66.1,29.81,North,355,0.0,0.0,91,0.00,,,0.00,Wunderground v.1.15,2013-07-25 01:49:00,
2013-07-24 21:54:00,68.7,66.0,29.81,North,355,0.0,0.0,91,0.00,,,0.00,Wunderground v.1.15,2013-07-25 01:54:00,
2013-07-24 21:59:00,68.6,66.2,29.80,North,355,0.0,0.0,92,0.00,,,0.00,Wunderground v.1.15,2013-07-25 01:59:00,
2013-07-24 22:04:00,68.5,66.4,29.80,North,355,0.0,0.0,93,0.00,,,0.00,Wunderground v.1.15,2013-07-25 02:04:00,
2013-07-24 22:13:00,68.6,66.5,29.80,North,355,0.0,0.0,93,0.00,,,0.00,Wunderground v.1.15,2013-07-25 02:13:00,
2013-07-24 22:19:00,68.6,66.8,29.81,North,355,0.0,0.0,94,0.00,,,0.00,Wunderground v.1.15,2013-07-25 02:19:00,
2013-07-24 22:29:00,68.6,66.8,29.81,North,355,0.0,0.0,94,0.00,,,0.00,Wunderground v.1.15,2013-07-25 02:29:00,
2013-07-24 22:34:00,68.6,66.8,29.81,North,355,0.0,0.0,94,0.00,,,0.00,Wunderground v.1.15,2013-07-25 02:34:00,
2013-07-24 22:44:00,68.4,66.6,29.81,North,355,0.0,0.0,94,0.00,,,0.00,Wunderground v.1.15,2013-07-25 02:44:00,
2013-07-24 22:49:00,68.3,66.5,29.81,North,355,0.0,0.0,94,0.00,,,0.00,Wunderground v.1.15,2013-07-25 02:49:00,
2013-07-24 22:59:00,68.3,66.8,29.80,North,355,0.0,0.0,95,0.00,,,0.00,Wunderground v.1.15,2013-07-25 02:59:00,
2013-07-24 23:04:00,68.4,66.9,29.80,North,355,0.0,0.0,95,0.00,,,0.00,Wunderground v.1.15,2013-07-25 03:04:00,
2013-07-24 23:19:00,68.4,67.2,29.81,North,355,0.0,0.0,96,0.00,,,0.00,Wunderground v.1.15,2013-07-25 03:19:00,
2013-07-24 23:38:00,68.4,67.2,29.81,North,355,0.0,0.0,96,0.00,,,0.00,Wunderground v.1.15,2013-07-25 03:38:00,
2013-07-24 23:44:00,68.3,67.1,29.81,North,355,0.0,0.0,96,0.00,,,0.00,Wunderground v.1.15,2013-07-25 03:44:00,
2013-07-24 23:49:00,68.3,67.1,29.81,North,355,0.0,0.0,96,0.00,,,0.00,Wunderground v.1.15,2013-07-25 03:49:00,
2013-07-24 23:59:00,68.3,67.1,29.82,North,355,0.0,0.0,96,0.00,,,0.00,Wunderground v.1.15,2013-07-25 03:59:00,